Terminal Aerodrome Forecast
Issued by NWS Green Bay, WI

Home | Current Version | Previous Version | Graphics & Text | Print | Product List | Glossary On
Versions: 1 2 3 4 5 6 7 8 9 10 11 12 13 14 15 16 17 18 19 20 21 22 23 24 25 26 27 28 29 30 31 32 33 34 35 36 37 38 39 40 41 42 43 44 45
000
FTUS43 KGRB 230300 AAC
TAFGRB
TAF AMD
KGRB 230325Z 2303/2324 10003KT 5SM BR BKN007
     FM230700 VRB03KT 2SM BR OVC005
      TEMPO 2309/2313 1SM BR OVC003
     FM231500 08006KT 6SM BR BKN010 OVC018
     FM231800 08007KT P6SM BKN030=

USA.gov is the U.S. government's official web portal to all federal, state and local government web resources and services.